N02SD KTEX-KAPA
Flight info
| Callsign | N02SD |
|---|---|
| Flight time | 0h 37m |
| Altitude | 33000 |
| Route | ETL HBU LARKS3 |
| Aircraft | 2100/L-SDFGRWY/S |
Departure
| Time | 2026-05-07 17:12 |
|---|---|
| Airport | Telluride Regional Airport (KTEX) |
Arrival
| Time | 2026-05-07 17:49 |
|---|---|
| Airport | Centennial Airport (KAPA) |
| Time | Latitude | Longitude | Altitude | Speed | Heading |
|---|---|---|---|---|---|
| 2026-05-07 17:03 | 37.95473 | -107.90260 | 9066 ft | 0 kts | 108° |
| 2026-05-07 17:08 | 37.95473 | -107.90259 | 9075 ft | 0 kts | 108° |
| 2026-05-07 17:08 | 37.95448 | -107.90241 | 9066 ft | 10 kts | 191° |
| 2026-05-07 17:08 | 37.95367 | -107.90254 | 9065 ft | 12 kts | 135° |
| 2026-05-07 17:09 | 37.95341 | -107.90140 | 9065 ft | 15 kts | 106° |
| 2026-05-07 17:09 | 37.95313 | -107.90006 | 9067 ft | 16 kts | 104° |
| 2026-05-07 17:09 | 37.95284 | -107.89873 | 9071 ft | 16 kts | 106° |
| 2026-05-07 17:09 | 37.95256 | -107.89742 | 9071 ft | 13 kts | 105° |
| 2026-05-07 17:10 | 37.95220 | -107.89666 | 9072 ft | 10 kts | 174° |
| 2026-05-07 17:10 | 37.95183 | -107.89676 | 9071 ft | 0 kts | 194° |
| 2026-05-07 17:10 | 37.95182 | -107.89676 | 9071 ft | 1 kts | 194° |
| 2026-05-07 17:10 | 37.95166 | -107.89682 | 9070 ft | 3 kts | 196° |
| 2026-05-07 17:11 | 37.95138 | -107.89717 | 9069 ft | 10 kts | 282° |
| 2026-05-07 17:11 | 37.95163 | -107.89838 | 9066 ft | 26 kts | 285° |
| 2026-05-07 17:11 | 37.95292 | -107.90451 | 9055 ft | 123 kts | 284° |
| 2026-05-07 17:11 | 37.95582 | -107.91751 | 9388 ft | 171 kts | 288° |
| 2026-05-07 17:12 | 37.95983 | -107.93363 | 10015 ft | 211 kts | 288° |
| 2026-05-07 17:12 | 37.96452 | -107.95254 | 10599 ft | 235 kts | 288° |
| 2026-05-07 17:12 | 37.97028 | -107.97247 | 11027 ft | 246 kts | 290° |
| 2026-05-07 17:12 | 37.97491 | -107.99356 | 11559 ft | 252 kts | 287° |
| 2026-05-07 17:13 | 37.97971 | -108.01474 | 12098 ft | 256 kts | 287° |
| 2026-05-07 17:13 | 37.98619 | -108.03592 | 12635 ft | 265 kts | 299° |
| 2026-05-07 17:13 | 37.99736 | -108.05470 | 13139 ft | 270 kts | 319° |
| 2026-05-07 17:13 | 38.01455 | -108.06434 | 13684 ft | 279 kts | 352° |
| 2026-05-07 17:14 | 38.03370 | -108.05953 | 14201 ft | 288 kts | 22° |
| 2026-05-07 17:14 | 38.05144 | -108.04735 | 14684 ft | 291 kts | 26° |
| 2026-05-07 17:14 | 38.06850 | -108.03306 | 15164 ft | 298 kts | 36° |
| 2026-05-07 17:14 | 38.08353 | -108.01462 | 15649 ft | 303 kts | 43° |
| 2026-05-07 17:15 | 38.09719 | -107.99456 | 16129 ft | 307 kts | 47° |
| 2026-05-07 17:15 | 38.11037 | -107.97308 | 16638 ft | 310 kts | 49° |
| 2026-05-07 17:15 | 38.12292 | -107.95057 | 17145 ft | 315 kts | 51° |
| 2026-05-07 17:15 | 38.13499 | -107.92720 | 17658 ft | 318 kts | 53° |
| 2026-05-07 17:16 | 38.14662 | -107.90313 | 18183 ft | 322 kts | 54° |
| 2026-05-07 17:16 | 38.15794 | -107.87837 | 18688 ft | 326 kts | 56° |
| 2026-05-07 17:16 | 38.16910 | -107.85321 | 19145 ft | 328 kts | 56° |
| 2026-05-07 17:16 | 38.18019 | -107.82779 | 19617 ft | 330 kts | 56° |
| 2026-05-07 17:17 | 38.19128 | -107.80213 | 20090 ft | 333 kts | 57° |
| 2026-05-07 17:17 | 38.20226 | -107.77653 | 20571 ft | 336 kts | 57° |
| 2026-05-07 17:17 | 38.21341 | -107.75031 | 21064 ft | 339 kts | 57° |
| 2026-05-07 17:17 | 38.22400 | -107.72331 | 21606 ft | 345 kts | 62° |
| 2026-05-07 17:18 | 38.23258 | -107.69453 | 22118 ft | 350 kts | 65° |
| 2026-05-07 17:18 | 38.24240 | -107.66622 | 22638 ft | 351 kts | 59° |
| 2026-05-07 17:18 | 38.25219 | -107.63728 | 22957 ft | 362 kts | 63° |
| 2026-05-07 17:18 | 38.26147 | -107.60706 | 23081 ft | 371 kts | 64° |
| 2026-05-07 17:19 | 38.27070 | -107.57611 | 23160 ft | 377 kts | 65° |
| 2026-05-07 17:19 | 38.27999 | -107.54476 | 23191 ft | 380 kts | 65° |
| 2026-05-07 17:19 | 38.28920 | -107.51354 | 23205 ft | 383 kts | 65° |
| 2026-05-07 17:19 | 38.29856 | -107.48179 | 23206 ft | 384 kts | 65° |
| 2026-05-07 17:20 | 38.30802 | -107.44992 | 23236 ft | 384 kts | 64° |
| 2026-05-07 17:20 | 38.31837 | -107.41865 | 23234 ft | 383 kts | 62° |
| 2026-05-07 17:20 | 38.32919 | -107.38766 | 23232 ft | 383 kts | 61° |
| 2026-05-07 17:20 | 38.34020 | -107.35667 | 23236 ft | 384 kts | 61° |
| 2026-05-07 17:21 | 38.35128 | -107.32570 | 23249 ft | 384 kts | 61° |
| 2026-05-07 17:21 | 38.36236 | -107.29477 | 23251 ft | 384 kts | 61° |
| 2026-05-07 17:21 | 38.37330 | -107.26423 | 23253 ft | 384 kts | 61° |
| 2026-05-07 17:21 | 38.38442 | -107.23328 | 23271 ft | 384 kts | 61° |
| 2026-05-07 17:22 | 38.39550 | -107.20229 | 23275 ft | 384 kts | 61° |
| 2026-05-07 17:22 | 38.40662 | -107.17136 | 23285 ft | 384 kts | 61° |
| 2026-05-07 17:22 | 38.41774 | -107.14043 | 23281 ft | 384 kts | 60° |
| 2026-05-07 17:22 | 38.42896 | -107.10961 | 23295 ft | 383 kts | 60° |
| 2026-05-07 17:23 | 38.44024 | -107.07872 | 23297 ft | 384 kts | 60° |
| 2026-05-07 17:23 | 38.45150 | -107.04791 | 23311 ft | 383 kts | 60° |
| 2026-05-07 17:23 | 38.46236 | -107.01727 | 23308 ft | 386 kts | 62° |
| 2026-05-07 17:23 | 38.47282 | -106.98567 | 23307 ft | 387 kts | 63° |
| 2026-05-07 17:24 | 38.48271 | -106.95517 | 23306 ft | 387 kts | 63° |
| 2026-05-07 17:24 | 38.49293 | -106.92338 | 23303 ft | 387 kts | 63° |
| 2026-05-07 17:24 | 38.50313 | -106.89160 | 23302 ft | 387 kts | 63° |
| 2026-05-07 17:24 | 38.51330 | -106.85981 | 23283 ft | 387 kts | 63° |
| 2026-05-07 17:25 | 38.52348 | -106.82802 | 23283 ft | 387 kts | 63° |
| 2026-05-07 17:25 | 38.53353 | -106.79666 | 23284 ft | 387 kts | 63° |
| 2026-05-07 17:25 | 38.54373 | -106.76489 | 23268 ft | 387 kts | 63° |
| 2026-05-07 17:25 | 38.55392 | -106.73307 | 23266 ft | 387 kts | 63° |
| 2026-05-07 17:26 | 38.56408 | -106.70129 | 23264 ft | 387 kts | 63° |
| 2026-05-07 17:26 | 38.57432 | -106.66946 | 23275 ft | 388 kts | 63° |
| 2026-05-07 17:26 | 38.58460 | -106.63754 | 23267 ft | 389 kts | 63° |
| 2026-05-07 17:26 | 38.59491 | -106.60559 | 23237 ft | 389 kts | 63° |
| 2026-05-07 17:27 | 38.60518 | -106.57367 | 23245 ft | 389 kts | 63° |
| 2026-05-07 17:27 | 38.61549 | -106.54167 | 23240 ft | 389 kts | 63° |
| 2026-05-07 17:27 | 38.62578 | -106.50974 | 23255 ft | 389 kts | 63° |
| 2026-05-07 17:27 | 38.63596 | -106.47814 | 23208 ft | 390 kts | 63° |
| 2026-05-07 17:28 | 38.64626 | -106.44610 | 23223 ft | 390 kts | 63° |
| 2026-05-07 17:28 | 38.65657 | -106.41395 | 23213 ft | 391 kts | 63° |
| 2026-05-07 17:28 | 38.66692 | -106.38179 | 23211 ft | 391 kts | 63° |
| 2026-05-07 17:28 | 38.67723 | -106.34967 | 23237 ft | 391 kts | 63° |
| 2026-05-07 17:29 | 38.68759 | -106.31751 | 23231 ft | 391 kts | 63° |
| 2026-05-07 17:29 | 38.69796 | -106.28538 | 23230 ft | 390 kts | 63° |
| 2026-05-07 17:29 | 38.70834 | -106.25329 | 23235 ft | 390 kts | 63° |
| 2026-05-07 17:29 | 38.71860 | -106.22172 | 23219 ft | 389 kts | 63° |
| 2026-05-07 17:30 | 38.72897 | -106.18981 | 23235 ft | 388 kts | 63° |
| 2026-05-07 17:30 | 38.73937 | -106.15791 | 23249 ft | 388 kts | 63° |
| 2026-05-07 17:30 | 38.74974 | -106.12593 | 23250 ft | 389 kts | 63° |
| 2026-05-07 17:30 | 38.75963 | -106.09372 | 23248 ft | 388 kts | 63° |
| 2026-05-07 17:31 | 38.77209 | -106.06328 | 23251 ft | 384 kts | 54° |
| 2026-05-07 17:31 | 38.78625 | -106.03429 | 23253 ft | 384 kts | 52° |
| 2026-05-07 17:31 | 38.80212 | -106.00703 | 23247 ft | 379 kts | 44° |
| 2026-05-07 17:31 | 38.82009 | -105.98237 | 23245 ft | 379 kts | 41° |
| 2026-05-07 17:32 | 38.83722 | -105.95640 | 23228 ft | 384 kts | 47° |
| 2026-05-07 17:32 | 38.85341 | -105.92973 | 23074 ft | 383 kts | 45° |
| 2026-05-07 17:32 | 38.87118 | -105.90441 | 23028 ft | 382 kts | 43° |
| 2026-05-07 17:32 | 38.88290 | -105.88687 | 23028 ft | 383 kts | 45° |
| 2026-05-07 17:33 | 38.90549 | -105.85201 | 23026 ft | 384 kts | 45° |
| 2026-05-07 17:33 | 38.92229 | -105.82525 | 23028 ft | 385 kts | 46° |
| 2026-05-07 17:33 | 38.93896 | -105.79832 | 23029 ft | 385 kts | 46° |
| 2026-05-07 17:33 | 38.95556 | -105.77131 | 23020 ft | 385 kts | 46° |
| 2026-05-07 17:34 | 38.97205 | -105.74413 | 22937 ft | 387 kts | 47° |
| 2026-05-07 17:34 | 38.98857 | -105.71690 | 22614 ft | 385 kts | 47° |
| 2026-05-07 17:34 | 39.00492 | -105.69046 | 22301 ft | 382 kts | 46° |
| 2026-05-07 17:34 | 39.02150 | -105.66395 | 21985 ft | 379 kts | 46° |
| 2026-05-07 17:35 | 39.03779 | -105.63810 | 21718 ft | 377 kts | 46° |
| 2026-05-07 17:35 | 39.05398 | -105.61297 | 21423 ft | 375 kts | 46° |
| 2026-05-07 17:35 | 39.07072 | -105.58729 | 21183 ft | 373 kts | 45° |
| 2026-05-07 17:35 | 39.08777 | -105.56227 | 20881 ft | 371 kts | 44° |
| 2026-05-07 17:36 | 39.10491 | -105.53766 | 20579 ft | 369 kts | 44° |
| 2026-05-07 17:36 | 39.12206 | -105.51323 | 20281 ft | 366 kts | 44° |
| 2026-05-07 17:36 | 39.13904 | -105.48926 | 19908 ft | 356 kts | 44° |
| 2026-05-07 17:36 | 39.15547 | -105.46606 | 19495 ft | 346 kts | 44° |
| 2026-05-07 17:37 | 39.17140 | -105.44386 | 19102 ft | 339 kts | 43° |
| 2026-05-07 17:37 | 39.18729 | -105.42190 | 18699 ft | 332 kts | 44° |
| 2026-05-07 17:37 | 39.20292 | -105.40022 | 18292 ft | 328 kts | 44° |
| 2026-05-07 17:37 | 39.21820 | -105.37846 | 17853 ft | 328 kts | 44° |
| 2026-05-07 17:38 | 39.23349 | -105.35671 | 17412 ft | 326 kts | 45° |
| 2026-05-07 17:38 | 39.24641 | -105.33753 | 17197 ft | 321 kts | 45° |
| 2026-05-07 17:38 | 39.26102 | -105.31608 | 17083 ft | 315 kts | 45° |
| 2026-05-07 17:38 | 39.27533 | -105.29490 | 17034 ft | 311 kts | 45° |
| 2026-05-07 17:39 | 39.28961 | -105.27375 | 17020 ft | 318 kts | 44° |
| 2026-05-07 17:39 | 39.30381 | -105.25312 | 16992 ft | 307 kts | 45° |
| 2026-05-07 17:39 | 39.31781 | -105.23206 | 16555 ft | 311 kts | 46° |
| 2026-05-07 17:39 | 39.33186 | -105.21096 | 16040 ft | 308 kts | 45° |
| 2026-05-07 17:40 | 39.34590 | -105.19038 | 15510 ft | 303 kts | 46° |
| 2026-05-07 17:40 | 39.35958 | -105.16982 | 15024 ft | 300 kts | 45° |
| 2026-05-07 17:40 | 39.37349 | -105.14990 | 14550 ft | 298 kts | 45° |
| 2026-05-07 17:40 | 39.38694 | -105.12964 | 14076 ft | 296 kts | 47° |
| 2026-05-07 17:41 | 39.40009 | -105.10954 | 13571 ft | 291 kts | 46° |
| 2026-05-07 17:41 | 39.41231 | -105.08848 | 13048 ft | 296 kts | 55° |
| 2026-05-07 17:41 | 39.42432 | -105.06704 | 12533 ft | 290 kts | 47° |
| 2026-05-07 17:41 | 39.43705 | -105.04777 | 11963 ft | 282 kts | 46° |
| 2026-05-07 17:42 | 39.45008 | -105.02919 | 11390 ft | 276 kts | 43° |
| 2026-05-07 17:42 | 39.46334 | -105.01135 | 10832 ft | 274 kts | 43° |
| 2026-05-07 17:42 | 39.47610 | -104.99319 | 10424 ft | 270 kts | 45° |
| 2026-05-07 17:42 | 39.48837 | -104.97536 | 10221 ft | 259 kts | 44° |
| 2026-05-07 17:43 | 39.50223 | -104.96203 | 10114 ft | 241 kts | 18° |
| 2026-05-07 17:43 | 39.51578 | -104.95970 | 10079 ft | 235 kts | 357° |
| 2026-05-07 17:43 | 39.53273 | -104.95882 | 9775 ft | 248 kts | 359° |
| 2026-05-07 17:43 | 39.55016 | -104.95723 | 9466 ft | 251 kts | 0° |
| 2026-05-07 17:44 | 39.56168 | -104.95603 | 9290 ft | 250 kts | 1° |
| 2026-05-07 17:44 | 39.57892 | -104.95430 | 9080 ft | 249 kts | 1° |
| 2026-05-07 17:44 | 39.60174 | -104.95473 | 8748 ft | 247 kts | 352° |
| 2026-05-07 17:44 | 39.61887 | -104.95705 | 8499 ft | 248 kts | 351° |
| 2026-05-07 17:45 | 39.63609 | -104.95836 | 8253 ft | 248 kts | 358° |
| 2026-05-07 17:45 | 39.65305 | -104.95381 | 7991 ft | 253 kts | 19° |
| 2026-05-07 17:45 | 39.66750 | -104.94065 | 7719 ft | 258 kts | 45° |
| 2026-05-07 17:45 | 39.67642 | -104.92052 | 7455 ft | 257 kts | 71° |
| 2026-05-07 17:46 | 39.67837 | -104.90551 | 7306 ft | 255 kts | 87° |
| 2026-05-07 17:46 | 39.67511 | -104.88385 | 7092 ft | 236 kts | 114° |
| 2026-05-07 17:46 | 39.66669 | -104.86741 | 6998 ft | 216 kts | 137° |
| 2026-05-07 17:46 | 39.65479 | -104.85699 | 6972 ft | 196 kts | 165° |
| 2026-05-07 17:47 | 39.64312 | -104.85373 | 6934 ft | 147 kts | 178° |
| 2026-05-07 17:47 | 39.63396 | -104.85304 | 6808 ft | 124 kts | 188° |
| 2026-05-07 17:47 | 39.62544 | -104.85334 | 6623 ft | 122 kts | 187° |
| 2026-05-07 17:47 | 39.61747 | -104.85308 | 6478 ft | 113 kts | 181° |
| 2026-05-07 17:48 | 39.60975 | -104.85249 | 6343 ft | 117 kts | 185° |
| 2026-05-07 17:48 | 39.60171 | -104.85228 | 6234 ft | 115 kts | 185° |
| 2026-05-07 17:48 | 39.59366 | -104.85198 | 6020 ft | 117 kts | 182° |
| 2026-05-07 17:48 | 39.58599 | -104.85151 | 5859 ft | 103 kts | 184° |
| 2026-05-07 17:49 | 39.57975 | -104.85132 | 5815 ft | 74 kts | 175° |
| 2026-05-07 17:49 | 39.57646 | -104.85112 | 5824 ft | 35 kts | 180° |
| 2026-05-07 17:49 | 39.57466 | -104.85102 | 5834 ft | 15 kts | 174° |
| 2026-05-07 17:49 | 39.57431 | -104.85010 | 5837 ft | 13 kts | 89° |
| 2026-05-07 17:50 | 39.57442 | -104.84893 | 5834 ft | 14 kts | 35° |
| 2026-05-07 17:50 | 39.57557 | -104.84891 | 5827 ft | 14 kts | 358° |
| 2026-05-07 17:50 | 39.57615 | -104.84833 | 5829 ft | 13 kts | 117° |
| 2026-05-07 17:50 | 39.57584 | -104.84803 | 5827 ft | 0 kts | 173° |